Time;durP1;ratioP1;P1;durP2;ratioP2;P2;SDS_P1;SDS_P2;PMS_P1;PMS_P2;Temp;Humidity;BMP_temperature;BMP_pressure;BME280_temperature;BME280_humidity;BME280_pressure;Samples;Min_cycle;Max_cycle;Signal;HPM_P1;HPM_P2
2022/12/31 00:01:13;;;;;;;23.77;9.67;;;;;;;12.40;nan;102269.41;4853929;29;20462;-87
2022/12/31 00:03:41;;;;;;;17.90;8.50;;;;;;;12.37;nan;102269.75;4868581;29;20552;-88
2022/12/31 00:06:19;;;;;;;20.97;9.10;;;;;;;12.40;nan;102272.16;4868807;29;20517;-87
2022/12/31 00:08:46;;;;;;;13.97;7.77;;;;;;;12.35;nan;102266.31;4883823;29;20488;-87
2022/12/31 00:11:14;;;;;;;17.00;8.00;;;;;;;12.27;nan;102253.47;4852675;29;20456;-87
2022/12/31 00:13:42;;;;;;;15.90;8.07;;;;;;;12.27;nan;102258.09;4868878;29;20474;-87
2022/12/31 00:16:14;;;;;;;12.40;6.80;;;;;;;12.30;nan;102258.63;4884036;29;20453;-87
2022/12/31 00:18:48;;;;;;;15.53;6.80;;;;;;;12.21;nan;102253.25;4868928;29;20457;-87
2022/12/31 00:21:16;;;;;;;9.60;7.00;;;;;;;12.25;nan;102261.00;4853687;29;20970;-87
2022/12/31 00:23:44;;;;;;;24.70;7.63;;;;;;;12.28;nan;102260.66;4884101;29;20568;-87
2022/12/31 00:26:13;;;;;;;13.37;7.00;;;;;;;12.23;nan;102254.81;4868754;29;20469;-87
2022/12/31 00:28:41;;;;;;;14.00;7.47;;;;;;;12.23;nan;102262.19;4868588;29;20465;-88
2022/12/31 00:31:11;;;;;;;16.27;6.93;;;;;;;12.19;nan;102256.16;4883838;29;20941;-87
2022/12/31 00:33:39;;;;;;;16.63;10.03;;;;;;;12.14;nan;102246.72;4900367;29;20461;-87
2022/12/31 00:36:09;;;;;;;13.10;7.80;;;;;;;12.14;nan;102247.59;4883869;29;20462;-87
2022/12/31 00:38:37;;;;;;;16.87;9.17;;;;;;;12.20;nan;102252.41;4853429;29;20469;-87
2022/12/31 00:41:06;;;;;;;14.67;6.43;;;;;;;12.19;nan;102244.34;4868483;29;20457;-87
2022/12/31 00:43:35;;;;;;;18.30;8.70;;;;;;;12.21;nan;102248.66;4809040;29;20496;-87
2022/12/31 00:46:04;;;;;;;24.33;7.17;;;;;;;12.21;nan;102243.16;4823932;29;20597;-87
2022/12/31 00:48:33;;;;;;;15.23;7.30;;;;;;;12.16;nan;102220.00;4823860;29;20470;-87
2022/12/31 00:51:02;;;;;;;15.20;7.70;;;;;;;12.24;nan;102229.13;4824125;29;20469;-87
2022/12/31 00:53:30;;;;;;;14.13;7.13;;;;;;;12.28;nan;102222.28;4824054;29;20461;-87
2022/12/31 00:56:19;;;;;;;21.20;8.27;;;;;;;12.32;nan;102222.78;4809055;29;20461;-88
2022/12/31 00:58:47;;;;;;;11.90;6.57;;;;;;;12.31;nan;102216.47;4823938;29;20494;-87
2022/12/31 01:01:21;;;;;;;13.50;7.13;;;;;;;12.25;nan;102203.44;4846038;29;20465;-88
2022/12/31 01:03:55;;;;;;;13.30;5.90;;;;;;;12.28;nan;102215.94;4884337;29;20493;-87
2022/12/31 01:06:23;;;;;;;12.90;6.67;;;;;;;12.21;nan;102203.94;4899442;29;20477;-87
2022/12/31 01:08:51;;;;;;;10.23;6.17;;;;;;;12.20;nan;102208.56;4882999;29;20450;-87
2022/12/31 01:11:22;;;;;;;14.20;6.40;;;;;;;12.15;nan;102194.50;4852463;29;20472;-87
2022/12/31 01:14:17;;;;;;;11.70;6.60;;;;;;;12.15;nan;102189.00;4868533;29;20484;-87
2022/12/31 01:16:46;;;;;;;16.03;6.30;;;;;;;12.06;nan;102184.56;4899252;29;20462;-86
2022/12/31 01:19:16;;;;;;;18.30;6.30;;;;;;;12.00;nan;102186.06;4883297;29;20791;-88
2022/12/31 01:21:45;;;;;;;11.80;6.60;;;;;;;11.99;nan;102184.34;4852683;29;20540;-87
2022/12/31 01:24:12;;;;;;;13.07;5.90;;;;;;;11.89;nan;102172.72;4867417;29;20502;-88
2022/12/31 01:26:40;;;;;;;14.30;6.50;;;;;;;11.89;nan;102182.81;4867420;29;20445;-87
2022/12/31 01:29:09;;;;;;;16.27;6.53;;;;;;;11.93;nan;102178.72;4867569;29;20458;-88
2022/12/31 01:31:37;;;;;;;12.40;6.83;;;;;;;11.92;nan;102177.00;4867672;29;20453;-87
2022/12/31 01:34:05;;;;;;;14.60;6.43;;;;;;;11.93;nan;102189.66;4882515;29;20473;-87
2022/12/31 01:36:34;;;;;;;13.20;6.90;;;;;;;11.88;nan;102173.72;4882598;29;20834;-87
2022/12/31 01:39:05;;;;;;;14.63;6.10;;;;;;;11.82;nan;102159.81;4867201;29;20458;-87
2022/12/31 01:41:38;;;;;;;17.00;6.73;;;;;;;11.93;nan;102173.22;4867959;29;20464;-87
2022/12/31 01:44:11;;;;;;;13.70;7.50;;;;;;;11.95;nan;102172.00;4882664;29;20504;-87
2022/12/31 01:46:45;;;;;;;14.60;7.07;;;;;;;11.93;nan;102165.00;4899062;29;20462;-87
2022/12/31 01:49:15;;;;;;;26.40;7.43;;;;;;;11.93;nan;102156.78;4851945;29;20477;-88
2022/12/31 01:51:43;;;;;;;18.80;8.60;;;;;;;11.89;nan;102144.44;4882758;29;20457;-87
2022/12/31 01:54:12;;;;;;;24.23;9.10;;;;;;;11.96;nan;102156.44;4867231;29;20460;-87
2022/12/31 01:56:39;;;;;;;19.87;9.20;;;;;;;11.90;nan;102132.47;4851866;29;20461;-88
2022/12/31 01:59:07;;;;;;;13.93;8.83;;;;;;;12.00;nan;102146.84;4882590;29;20823;-88
2022/12/31 02:01:35;;;;;;;16.53;7.30;;;;;;;11.97;nan;102148.03;4882293;29;20457;-85
2022/12/31 02:04:07;;;;;;;21.27;8.27;;;;;;;11.98;nan;102155.25;4867189;29;20501;-88
2022/12/31 02:07:08;;;;;;;21.67;10.23;;;;;;;11.96;nan;102151.81;4867688;29;20989;-85
2022/12/31 02:09:37;;;;;;;17.80;9.77;;;;;;;11.93;nan;102152.13;4898359;29;20473;-85
2022/12/31 02:12:07;;;;;;;14.30;8.17;;;;;;;11.93;nan;102152.13;4851574;29;20465;-86
2022/12/31 02:15:02;;;;;;;25.60;11.17;;;;;;;11.99;nan;102156.09;4867481;29;20469;-85
2022/12/31 02:18:13;;;;;;;24.47;10.20;;;;;;;11.99;nan;102153.34;4885392;29;20461;-85
2022/12/31 02:20:46;;;;;;;27.03;10.83;;;;;;;11.99;nan;102159.69;4884785;29;20454;-85
2022/12/31 02:23:51;;;;;;;18.00;10.27;;;;;;;12.01;nan;102162.28;4898154;29;21008;-85
2022/12/31 02:26:24;;;;;;;22.80;11.23;;;;;;;12.00;nan;102160.56;4898201;29;20948;-85
2022/12/31 02:29:45;;;;;;;17.60;10.37;;;;;;;11.96;nan;102164.66;4898332;29;20458;-86
2022/12/31 02:32:34;;;;;;;16.67;8.97;;;;;;;11.92;nan;102164.16;4807667;29;20464;-85
2022/12/31 02:35:28;;;;;;;21.60;9.43;;;;;;;11.89;nan;102158.16;4821978;29;20453;-85
2022/12/31 02:38:04;;;;;;;18.53;9.40;;;;;;;11.86;nan;102162.06;4807522;29;20470;-85
2022/12/31 02:40:33;;;;;;;15.37;9.90;;;;;;;11.85;nan;102165.84;4793431;29;20461;-85
2022/12/31 02:43:02;;;;;;;17.37;9.90;;;;;;;11.86;nan;102163.97;4792823;29;20485;-85
2022/12/31 02:45:36;;;;;;;14.70;9.63;;;;;;;11.79;nan;102160.16;4807688;29;20457;-85
2022/12/31 02:48:11;;;;;;;35.13;11.90;;;;;;;11.77;nan;102157.59;4825041;29;20451;-85
2022/12/31 02:50:57;;;;;;;22.90;10.57;;;;;;;11.84;nan;102168.75;4827935;29;20465;-86
2022/12/31 02:53:39;;;;;;;59.57;32.73;;;;;;;11.90;nan;102168.09;4841579;29;20454;-84
2022/12/31 02:56:07;;;;;;;174.37;102.50;;;;;;;11.92;nan;102183.34;4799408;29;20462;-86
2022/12/31 03:07:14;;;;;;;39.40;21.60;;;;;;;11.85;nan;102173.19;4835302;29;20484;-85
2022/12/31 03:09:42;;;;;;;35.70;19.47;;;;;;;11.89;nan;102171.84;4824966;29;20839;-85
2022/12/31 03:14:56;;;;;;;31.80;20.20;;;;;;;12.00;nan;102177.84;4814739;29;20472;-86
2022/12/31 03:17:24;;;;;;;34.73;22.20;;;;;;;12.04;nan;102164.69;4825529;29;20464;-85
2022/12/31 03:22:40;;;;;;;27.10;16.47;;;;;;;12.10;nan;102177.72;4855839;29;20450;-85
2022/12/31 03:27:57;;;;;;;26.53;16.70;;;;;;;12.15;nan;102166.22;4870791;29;20461;-85
2022/12/31 03:30:24;;;;;;;27.80;15.73;;;;;;;12.15;nan;102167.09;4866179;29;20815;-85
2022/12/31 03:32:52;;;;;;;27.30;15.93;;;;;;;12.17;nan;102166.91;4865694;29;20461;-85
2022/12/31 03:35:20;;;;;;;23.50;13.70;;;;;;;12.18;nan;102166.75;4897645;29;20860;-85
2022/12/31 03:37:48;;;;;;;25.27;12.60;;;;;;;12.20;nan;102161.09;4850984;29;20461;-86
2022/12/31 03:40:16;;;;;;;23.27;11.50;;;;;;;12.21;nan;102165.56;4865707;29;20466;-84
2022/12/31 03:42:43;;;;;;;26.67;12.03;;;;;;;12.23;nan;102164.38;4881099;29;20964;-85
2022/12/31 03:45:12;;;;;;;22.43;11.70;;;;;;;12.21;nan;102160.06;4866783;29;20461;-85
2022/12/31 03:47:39;;;;;;;22.03;10.80;;;;;;;12.16;nan;102144.13;4854202;29;20454;-86
2022/12/31 03:50:08;;;;;;;25.07;12.37;;;;;;;12.21;nan;102144.47;4884663;29;20461;-85
2022/12/31 03:52:35;;;;;;;20.23;12.10;;;;;;;12.16;nan;102135.91;4869229;29;20461;-86
2022/12/31 03:55:04;;;;;;;24.57;12.47;;;;;;;12.21;nan;102144.47;4884478;29;20476;-85
2022/12/31 03:57:31;;;;;;;22.27;12.00;;;;;;;12.21;nan;102141.75;4854198;29;20460;-85
2022/12/31 03:59:59;;;;;;;22.73;12.30;;;;;;;12.25;nan;102145.88;4854057;29;20457;-86
2022/12/31 04:02:27;;;;;;;27.83;13.70;;;;;;;12.23;nan;102145.19;4868788;29;20465;-85
2022/12/31 04:04:55;;;;;;;24.90;13.43;;;;;;;12.22;nan;102135.25;4869362;29;20496;-86
2022/12/31 04:07:23;;;;;;;28.10;15.43;;;;;;;12.23;nan;102141.56;4884155;29;20453;-85
2022/12/31 04:09:51;;;;;;;27.40;12.97;;;;;;;12.22;nan;102118.78;4869245;29;20975;-86
2022/12/31 04:12:20;;;;;;;21.93;11.83;;;;;;;12.26;nan;102125.66;4853829;29;20453;-86
2022/12/31 04:14:47;;;;;;;28.20;12.50;;;;;;;12.23;nan;102112.28;4883642;29;20552;-85
2022/12/31 04:17:14;;;;;;;14.40;9.13;;;;;;;12.19;nan;102119.13;4883891;29;20961;-85
2022/12/31 04:19:42;;;;;;;21.53;10.60;;;;;;;12.24;nan;102115.88;4869037;29;20469;-85
2022/12/31 04:22:10;;;;;;;21.80;10.83;;;;;;;12.26;nan;102114.69;4868953;29;20458;-85
2022/12/31 04:24:38;;;;;;;15.50;9.70;;;;;;;12.25;nan;102099.25;4884140;29;20497;-85
2022/12/31 04:27:05;;;;;;;23.50;11.77;;;;;;;12.29;nan;102103.38;4868657;29;20465;-86
2022/12/31 04:29:34;;;;;;;23.63;11.60;;;;;;;12.29;nan;102097.91;4884202;29;20457;-85
2022/12/31 04:32:03;;;;;;;29.83;12.60;;;;;;;12.33;nan;102103.88;4868780;29;20468;-86
2022/12/31 04:34:30;;;;;;;20.60;11.83;;;;;;;12.28;nan;102098.94;4868729;29;20467;-85
2022/12/31 04:36:58;;;;;;;19.00;10.90;;;;;;;12.28;nan;102100.81;4853054;29;20465;-85
2022/12/31 04:39:27;;;;;;;20.33;10.63;;;;;;;12.21;nan;102092.41;4868252;29;20469;-86
2022/12/31 04:41:56;;;;;;;19.00;11.00;;;;;;;12.20;nan;102104.41;4883071;29;20809;-86
2022/12/31 04:44:25;;;;;;;27.23;10.87;;;;;;;12.18;nan;102089.16;4883807;29;20556;-86
2022/12/31 04:46:55;;;;;;;21.90;12.03;;;;;;;12.14;nan;102099.59;4868777;29;20941;-86
2022/12/31 04:49:22;;;;;;;26.37;11.13;;;;;;;12.13;nan;102092.38;4852872;29;20477;-85
2022/12/31 04:51:50;;;;;;;31.63;12.20;;;;;;;12.15;nan;102090.34;4883441;29;20465;-85
2022/12/31 04:54:19;;;;;;;20.40;11.70;;;;;;;12.14;nan;102088.63;4883588;29;20453;-86
2022/12/31 04:56:47;;;;;;;25.63;11.50;;;;;;;12.12;nan;102090.72;4882729;29;20453;-85
2022/12/31 04:59:15;;;;;;;23.70;11.90;;;;;;;12.12;nan;102092.59;4883458;29;20484;-85
2022/12/31 05:01:42;;;;;;;19.03;11.73;;;;;;;12.16;nan;102100.28;4868052;29;20449;-85
2022/12/31 05:04:10;;;;;;;21.53;11.40;;;;;;;12.15;nan;102086.75;4852862;29;20489;-86
2022/12/31 05:06:37;;;;;;;25.20;12.23;;;;;;;12.02;nan;102079.03;4883294;29;20454;-85
2022/12/31 05:09:05;;;;;;;19.03;10.83;;;;;;;12.13;nan;102108.84;4867811;29;20453;-85
2022/12/31 05:11:32;;;;;;;24.70;11.03;;;;;;;12.12;nan;102098.94;4883146;29;20452;-85
2022/12/31 05:14:00;;;;;;;16.70;11.00;;;;;;;12.11;nan;102110.91;4867857;29;20488;-85
2022/12/31 05:16:27;;;;;;;19.50;9.90;;;;;;;12.11;nan;102105.44;4882831;29;20461;-85
2022/12/31 05:18:55;;;;;;;25.07;9.27;;;;;;;12.07;nan;102104.91;4883044;29;20465;-85
2022/12/31 05:21:23;;;;;;;27.70;10.80;;;;;;;12.05;nan;102103.38;4867368;29;20469;-86
2022/12/31 05:23:50;;;;;;;18.93;10.17;;;;;;;12.05;nan;102103.38;4867641;29;20497;-85
2022/12/31 05:26:18;;;;;;;17.90;10.20;;;;;;;12.01;nan;102100.09;4852286;29;20556;-85
2022/12/31 05:28:45;;;;;;;25.60;10.10;;;;;;;12.06;nan;102108.69;4867486;29;20462;-85
2022/12/31 05:31:13;;;;;;;25.17;10.80;;;;;;;12.04;nan;102098.91;4867261;29;20476;-85
2022/12/31 05:33:42;;;;;;;26.70;10.77;;;;;;;12.07;nan;102104.06;4867152;29;20469;-86
2022/12/31 05:36:10;;;;;;;22.03;10.57;;;;;;;12.07;nan;102102.19;4882788;29;20454;-85
2022/12/31 05:38:38;;;;;;;16.87;11.20;;;;;;;12.06;nan;102102.34;4867397;29;20824;-86
2022/12/31 05:41:06;;;;;;;24.23;10.57;;;;;;;12.10;nan;102103.72;4866935;29;20815;-86
2022/12/31 05:43:34;;;;;;;21.33;11.10;;;;;;;12.11;nan;102094.47;4867390;29;20504;-85
2022/12/31 05:46:03;;;;;;;29.40;10.60;;;;;;;12.11;nan;102097.22;4867059;29;20453;-86
2022/12/31 05:48:31;;;;;;;17.97;10.37;;;;;;;12.11;nan;102099.97;4867066;29;20448;-86
2022/12/31 05:50:58;;;;;;;22.87;10.90;;;;;;;12.12;nan;102112.63;4867287;29;20461;-85
2022/12/31 05:53:26;;;;;;;23.57;10.30;;;;;;;12.13;nan;102107.97;4852235;29;20453;-85
2022/12/31 05:55:54;;;;;;;20.47;9.60;;;;;;;12.08;nan;102108.50;4897754;29;20505;-86
2022/12/31 05:58:21;;;;;;;20.40;10.50;;;;;;;12.14;nan;102105.06;4882664;29;20458;-86
2022/12/31 06:00:52;;;;;;;26.20;11.20;;;;;;;12.17;nan;102109.34;4851649;29;20984;-85
2022/12/31 06:03:19;;;;;;;22.77;10.50;;;;;;;12.14;nan;102105.06;4882406;29;20458;-85
2022/12/31 06:05:47;;;;;;;23.50;10.20;;;;;;;12.14;nan;102105.06;4882022;29;20961;-86
2022/12/31 06:08:14;;;;;;;25.23;11.60;;;;;;;12.15;nan;102092.22;4867267;29;20442;-85
2022/12/31 06:10:42;;;;;;;32.30;12.20;;;;;;;12.17;nan;102102.00;4866614;29;20469;-85
2022/12/31 06:13:10;;;;;;;23.77;11.20;;;;;;;12.19;nan;102099.94;4866512;29;20496;-85
2022/12/31 06:15:39;;;;;;;20.03;10.33;;;;;;;12.20;nan;102104.41;4866615;29;20462;-86
2022/12/31 06:18:08;;;;;;;19.10;9.90;;;;;;;12.22;nan;102110.56;4866976;29;20466;-85
2022/12/31 06:20:36;;;;;;;24.43;11.20;;;;;;;12.24;nan;102119.47;4882253;29;20948;-86
2022/12/31 06:23:04;;;;;;;26.50;11.10;;;;;;;12.17;nan;102118.44;4866699;29;21091;-85
2022/12/31 06:25:35;;;;;;;27.30;11.10;;;;;;;12.23;nan;102120.50;4852319;29;20996;-86
2022/12/31 06:28:03;;;;;;;23.20;10.90;;;;;;;12.20;nan;102112.63;4881691;29;20457;-85
2022/12/31 06:30:31;;;;;;;29.80;11.47;;;;;;;12.27;nan;102132.84;4866739;29;20470;-86
2022/12/31 06:32:59;;;;;;;19.90;10.53;;;;;;;12.27;nan;102138.34;4881988;29;20454;-85
2022/12/31 06:35:26;;;;;;;25.43;10.73;;;;;;;12.18;nan;102116.56;4881939;29;20468;-85
2022/12/31 06:37:55;;;;;;;23.13;11.00;;;;;;;12.28;nan;102134.56;4881520;29;20474;-85
2022/12/31 06:40:23;;;;;;;22.10;9.53;;;;;;;12.31;nan;102138.84;4881801;29;20488;-85
2022/12/31 06:42:52;;;;;;;21.37;11.53;;;;;;;12.31;nan;102126.00;4851185;29;20485;-86
2022/12/31 06:45:25;;;;;;;18.23;10.80;;;;;;;12.29;nan;102118.97;4897981;29;20624;-85
2022/12/31 06:47:53;;;;;;;88.50;41.30;;;;;;;12.30;nan;102120.69;4881748;29;20457;-85
2022/12/31 06:50:21;;;;;;;96.20;50.30;;;;;;;12.31;nan;102128.75;4881802;29;20458;-85
2022/12/31 06:52:49;;;;;;;50.87;29.10;;;;;;;12.30;nan;102127.03;4881758;29;20464;-85
2022/12/31 06:55:17;;;;;;;42.47;20.73;;;;;;;12.31;nan;102128.75;4881545;29;20458;-86
2022/12/31 06:57:46;;;;;;;25.30;13.80;;;;;;;12.34;nan;102133.84;4881673;29;20458;-85
2022/12/31 07:00:14;;;;;;;36.83;13.27;;;;;;;12.33;nan;102143.09;4866463;29;20517;-86
2022/12/31 07:03:00;;;;;;;23.63;11.33;;;;;;;12.36;nan;102155.63;4866338;29;20457;-86
2022/12/31 07:05:45;;;;;;;19.30;11.30;;;;;;;12.34;nan;102153.03;4898086;29;20500;-85
2022/12/31 07:08:30;;;;;;;30.20;11.00;;;;;;;12.36;nan;102156.47;4881749;29;20446;-86
2022/12/31 07:11:24;;;;;;;23.30;11.20;;;;;;;12.34;nan;102152.19;4898082;29;20944;-85
2022/12/31 07:13:59;;;;;;;19.30;10.27;;;;;;;12.37;nan;102152.72;4867653;29;20478;-85
2022/12/31 07:16:41;;;;;;;24.00;11.40;;;;;;;12.40;nan;102166.09;4866586;29;20449;-86
2022/12/31 07:19:27;;;;;;;18.07;10.80;;;;;;;12.41;nan;102162.31;4881156;29;20461;-85
2022/12/31 07:21:55;;;;;;;20.73;10.30;;;;;;;12.36;nan;102161.97;4900950;29;20465;-85
2022/12/31 07:24:23;;;;;;;17.83;9.83;;;;;;;12.35;nan;102162.13;4884960;29;20485;-86
2022/12/31 07:26:57;;;;;;;20.97;9.43;;;;;;;12.40;nan;102168.81;4869655;29;20469;-86
2022/12/31 07:29:40;;;;;;;23.07;9.83;;;;;;;12.37;nan;102160.94;4884869;29;20968;-86
2022/12/31 07:32:40;;;;;;;18.93;10.60;;;;;;;12.36;nan;102159.22;4870245;29;20461;-86
2022/12/31 07:35:21;;;;;;;27.20;12.27;;;;;;;12.34;nan;102158.53;4901355;29;20477;-86
2022/12/31 07:38:03;;;;;;;22.67;10.53;;;;;;;12.26;nan;102166.78;4884824;29;20469;-85
2022/12/31 07:40:40;;;;;;;18.40;9.33;;;;;;;12.32;nan;102174.28;4870644;29;20509;-85
2022/12/31 07:43:16;;;;;;;29.03;12.23;;;;;;;12.30;nan;102176.38;4901369;29;20944;-85
2022/12/31 07:45:52;;;;;;;19.13;10.80;;;;;;;12.30;nan;102181.84;4869289;29;20843;-85
2022/12/31 07:48:27;;;;;;;24.53;11.80;;;;;;;12.27;nan;102170.38;4870015;29;20449;-85
2022/12/31 07:50:55;;;;;;;24.13;11.60;;;;;;;12.27;nan;102168.47;4869665;29;20469;-85
2022/12/31 07:53:23;;;;;;;28.10;12.90;;;;;;;12.29;nan;102171.91;4869355;29;20465;-85
2022/12/31 07:56:01;;;;;;;23.23;11.93;;;;;;;12.29;nan;102169.19;4868998;29;20465;-86
2022/12/31 07:59:09;;;;;;;21.07;11.60;;;;;;;12.31;nan;102175.34;4884578;29;20799;-86
2022/12/31 08:01:45;;;;;;;29.03;12.47;;;;;;;12.30;nan;102170.88;4900873;29;20465;-86
2022/12/31 08:04:34;;;;;;;22.30;10.37;;;;;;;12.32;nan;102171.53;4884380;29;20544;-85
2022/12/31 08:07:16;;;;;;;14.80;9.23;;;;;;;12.30;nan;102176.38;4901218;29;20454;-85
2022/12/31 08:10:02;;;;;;;20.83;10.63;;;;;;;12.36;nan;102186.63;4885322;29;20453;-86
2022/12/31 08:12:33;;;;;;;27.47;11.50;;;;;;;12.38;nan;102187.31;4884383;29;20819;-85
2022/12/31 08:15:01;;;;;;;28.60;13.30;;;;;;;12.38;nan;102184.59;4883961;29;21035;-85
2022/12/31 08:17:29;;;;;;;31.90;15.37;;;;;;;12.40;nan;102181.69;4869026;29;20485;-86
2022/12/31 08:19:56;;;;;;;36.80;12.53;;;;;;;12.38;nan;102179.09;4884235;29;20464;-85
2022/12/31 08:22:41;;;;;;;23.20;11.13;;;;;;;12.45;nan;102184.78;4868619;29;20465;-85
2022/12/31 08:25:31;;;;;;;41.23;23.13;;;;;;;12.49;nan;102191.63;4868800;29;21028;-86
2022/12/31 08:28:02;;;;;;;40.50;26.27;;;;;;;12.51;nan;102184.06;4883829;29;20473;-86
2022/12/31 08:30:54;;;;;;;46.20;21.73;;;;;;;12.55;nan;102184.59;4900095;29;20972;-86
2022/12/31 08:33:45;;;;;;;28.70;16.50;;;;;;;12.54;nan;102177.38;4882894;29;20972;-85
2022/12/31 08:36:32;;;;;;;28.33;11.87;;;;;;;12.62;nan;102180.13;4883748;29;20466;-85
2022/12/31 08:39:12;;;;;;;21.97;11.70;;;;;;;12.61;nan;102167.44;4900283;29;20457;-86
2022/12/31 08:41:44;;;;;;;20.60;11.17;;;;;;;12.67;nan;102175.88;4884555;29;20968;-85
2022/12/31 08:44:48;;;;;;;20.20;11.30;;;;;;;12.74;nan;102189.72;4883232;29;20489;-85
2022/12/31 08:47:37;;;;;;;18.90;11.80;;;;;;;12.73;nan;102182.53;4883665;29;20952;-86
2022/12/31 08:50:06;;;;;;;25.83;13.40;;;;;;;12.79;nan;102179.09;4885815;29;20808;-85
2022/12/31 08:52:33;;;;;;;23.80;11.63;;;;;;;12.86;nan;102169.16;4867983;29;20466;-86
2022/12/31 08:55:03;;;;;;;29.60;13.17;;;;;;;12.84;nan;102151.16;4883311;29;20533;-85
2022/12/31 08:57:39;;;;;;;20.30;11.73;;;;;;;13.05;nan;102168.78;4883243;29;20877;-85
2022/12/31 09:00:15;;;;;;;25.13;12.33;;;;;;;13.13;nan;102168.72;4883256;29;20457;-86
2022/12/31 09:02:52;;;;;;;26.03;13.13;;;;;;;13.27;nan;102166.34;4883254;29;20465;-85
2022/12/31 09:05:58;;;;;;;26.60;11.50;;;;;;;13.40;nan;102163.88;4899550;29;20501;-85
2022/12/31 09:08:57;;;;;;;24.60;12.60;;;;;;;13.56;nan;102172.06;4872712;29;20462;-86
2022/12/31 09:11:45;;;;;;;27.53;12.17;;;;;;;13.67;nan;102171.63;4885043;29;20548;-87
2022/12/31 09:14:40;;;;;;;20.60;11.53;;;;;;;13.79;nan;102169.38;4899566;29;20549;-87
2022/12/31 09:17:28;;;;;;;26.60;11.60;;;;;;;13.93;nan;102175.97;4883234;29;20457;-86
2022/12/31 09:19:56;;;;;;;32.30;13.47;;;;;;;14.01;nan;102167.69;4883527;29;20457;-86
2022/12/31 09:22:23;;;;;;;27.30;12.40;;;;;;;14.08;nan;102175.03;4867502;29;20465;-86
2022/12/31 09:24:51;;;;;;;24.90;11.03;;;;;;;14.10;nan;102166.59;4852572;29;20485;-86
2022/12/31 09:28:05;;;;;;;26.00;11.73;;;;;;;14.25;nan;102180.41;4868040;29;20461;-86
2022/12/31 09:30:44;;;;;;;28.80;11.43;;;;;;;14.31;nan;102180.53;4793419;29;20462;-86
2022/12/31 09:33:29;;;;;;;26.80;12.90;;;;;;;14.37;nan;102187.22;4804831;29;20462;-87
2022/12/31 09:35:58;;;;;;;23.30;10.63;;;;;;;14.39;nan;102191.50;4805325;29;20969;-85
2022/12/31 09:38:56;;;;;;;31.30;12.80;;;;;;;14.49;nan;102183.88;4789966;29;20466;-86
2022/12/31 09:41:29;;;;;;;28.63;12.80;;;;;;;14.61;nan;102188.94;4805188;29;20480;-86
2022/12/31 09:44:05;;;;;;;27.57;12.10;;;;;;;14.65;nan;102195.78;4804846;29;20884;-86
2022/12/31 09:47:05;;;;;;;23.00;12.30;;;;;;;14.69;nan;102188.84;4805269;29;20453;-86
2022/12/31 09:50:26;;;;;;;29.30;12.87;;;;;;;14.79;nan;102184.81;4805511;29;20450;-86
2022/12/31 09:53:30;;;;;;;30.77;13.10;;;;;;;14.93;nan;102194.16;4786902;29;20873;-87
2022/12/31 09:56:08;;;;;;;23.50;12.90;;;;;;;15.06;nan;102190.75;4801760;29;20462;-86
2022/12/31 09:58:55;;;;;;;24.70;12.00;;;;;;;15.15;nan;102186.88;4801969;29;20466;-87
2022/12/31 10:01:53;;;;;;;34.40;12.63;;;;;;;15.24;nan;102193.13;4786880;29;20455;-87
2022/12/31 10:04:39;;;;;;;25.13;11.77;;;;;;;15.30;nan;102184.97;4786866;29;20454;-87
2022/12/31 10:07:25;;;;;;;26.50;12.03;;;;;;;15.41;nan;102189.13;4810613;29;20465;-86
2022/12/31 10:10:00;;;;;;;27.17;12.80;;;;;;;15.51;nan;102186.97;4841040;29;20462;-87
2022/12/31 10:12:51;;;;;;;27.43;12.20;;;;;;;15.50;nan;102171.47;4826305;29;21024;-87
2022/12/31 10:15:37;;;;;;;22.80;11.00;;;;;;;15.73;nan;102188.78;4840728;29;20460;-86
2022/12/31 10:18:22;;;;;;;26.80;11.73;;;;;;;15.84;nan;102188.28;4841093;29;20478;-87
2022/12/31 10:21:11;;;;;;;28.77;11.00;;;;;;;16.04;nan;102185.75;4826449;29;20465;-87
2022/12/31 10:23:54;;;;;;;26.73;10.40;;;;;;;16.27;nan;102196.63;4867704;29;20823;-86
2022/12/31 10:26:41;;;;;;;24.50;12.17;;;;;;;16.46;nan;102198.75;4881626;29;21059;-86
2022/12/31 10:29:23;;;;;;;29.43;10.03;;;;;;;16.70;nan;102202.19;4884579;29;20788;-86
2022/12/31 10:31:59;;;;;;;21.00;8.73;;;;;;;16.84;nan;102195.72;4883046;29;20446;-87
2022/12/31 10:34:45;;;;;;;22.77;7.80;;;;;;;17.02;nan;102196.06;4882456;29;20512;-86
2022/12/31 10:37:18;;;;;;;21.43;8.30;;;;;;;17.11;nan;102199.56;4898244;29;20453;-87
2022/12/31 10:40:05;;;;;;;29.70;8.60;;;;;;;17.25;nan;102207.72;4867286;29;20457;-87
2022/12/31 10:42:35;;;;;;;28.80;9.57;;;;;;;17.37;nan;102190.56;4868196;29;20455;-86
2022/12/31 10:45:03;;;;;;;23.20;9.43;;;;;;;17.49;nan;102197.25;4882098;29;20492;-86
2022/12/31 10:47:58;;;;;;;29.80;12.97;;;;;;;17.61;nan;102203.91;4884596;29;20548;-87
2022/12/31 10:51:09;;;;;;;36.70;15.80;;;;;;;17.70;nan;102196.34;4885683;29;20549;-87
2022/12/31 10:54:04;;;;;;;25.87;12.60;;;;;;;17.86;nan;102199.59;4870427;29;20876;-88
2022/12/31 10:56:40;;;;;;;52.63;26.70;;;;;;;17.95;nan;102203.88;4897755;29;20448;-87
2022/12/31 10:59:39;;;;;;;46.70;20.67;;;;;;;18.01;nan;102196.66;4898166;29;20457;-87
2022/12/31 11:02:37;;;;;;;33.97;15.73;;;;;;;18.07;nan;102190.31;4881519;29;20543;-88
2022/12/31 11:05:24;;;;;;;19.83;7.33;;;;;;;18.14;nan;102187.53;4897549;29;20490;-87
2022/12/31 11:07:55;;;;;;;26.43;8.30;;;;;;;18.24;nan;102185.25;4881541;29;20453;-87
2022/12/31 11:10:47;;;;;;;28.10;8.20;;;;;;;18.30;nan;102184.38;4881211;29;20814;-86
2022/12/31 11:13:44;;;;;;;58.70;25.73;;;;;;;18.36;nan;102178.03;4897652;29;20485;-85
2022/12/31 11:16:32;;;;;;;47.07;19.30;;;;;;;18.42;nan;102171.66;4897677;29;20458;-87
2022/12/31 11:19:10;;;;;;;25.40;8.70;;;;;;;18.48;nan;102170.78;4883197;29;20454;-87
2022/12/31 11:21:46;;;;;;;31.57;9.13;;;;;;;18.60;nan;102188.53;4866956;29;20472;-87
2022/12/31 11:24:36;;;;;;;22.20;7.53;;;;;;;18.67;nan;102168.28;4897645;29;20457;-87
2022/12/31 11:27:39;;;;;;;20.83;7.93;;;;;;;18.82;nan;102166.16;4881759;29;20462;-88
2022/12/31 11:30:47;;;;;;;19.70;7.23;;;;;;;18.92;nan;102177.66;4897682;29;20483;-87
2022/12/31 11:33:42;;;;;;;16.53;5.87;;;;;;;19.02;nan;102172.56;4897596;29;21032;-87
2022/12/31 11:36:27;;;;;;;19.70;8.20;;;;;;;19.06;nan;102173.81;4882079;29;20492;-85
2022/12/31 11:39:00;;;;;;;23.57;10.27;;;;;;;19.14;nan;102169.97;4867112;29;20453;-86
2022/12/31 11:41:41;;;;;;;25.00;9.10;;;;;;;19.23;nan;102157.59;4897225;29;20469;-85
2022/12/31 11:44:58;;;;;;;24.70;6.57;;;;;;;19.40;nan;102157.97;4865854;29;20475;-85
2022/12/31 11:47:47;;;;;;;29.17;7.27;;;;;;;19.60;nan;102147.72;4839890;29;20871;-85
2022/12/31 11:51:22;;;;;;;29.27;8.53;;;;;;;19.81;nan;102141.84;4897802;29;20536;-85
2022/12/31 11:54:24;;;;;;;22.63;7.47;;;;;;;19.87;nan;102132.63;4854442;29;20880;-85
2022/12/31 11:57:30;;;;;;;23.60;8.93;;;;;;;19.89;nan;102135.19;4880920;29;20468;-85
2022/12/31 12:00:05;;;;;;;38.40;8.63;;;;;;;19.76;nan;102127.78;4880889;29;20972;-85
2022/12/31 12:02:34;;;;;;;24.47;8.10;;;;;;;19.69;nan;102128.88;4851654;29;20911;-86
2022/12/31 12:05:04;;;;;;;21.43;7.43;;;;;;;19.64;nan;102133.16;4866047;29;20462;-86
2022/12/31 12:07:37;;;;;;;13.90;5.63;;;;;;;19.48;nan;102122.53;4855570;29;20455;-86
2022/12/31 12:10:34;;;;;;;27.33;9.80;;;;;;;19.49;nan;102123.38;4884451;29;20457;-86
2022/12/31 12:13:32;;;;;;;26.70;9.67;;;;;;;19.54;nan;102131.94;4898960;29;20492;-86
2022/12/31 12:16:01;;;;;;;44.10;24.10;;;;;;;19.53;nan;102114.44;4872915;29;20460;-86
2022/12/31 12:18:35;;;;;;;27.83;8.23;;;;;;;19.65;nan;102117.38;4868911;29;20956;-86
2022/12/31 12:21:21;;;;;;;19.37;8.50;;;;;;;19.74;nan;102098.56;4854191;29;20454;-86
2022/12/31 12:24:00;;;;;;;18.00;5.50;;;;;;;19.91;nan;102103.34;4886315;29;20831;-86
2022/12/31 12:26:34;;;;;;;21.47;9.23;;;;;;;19.94;nan;102113.16;4884423;29;20911;-86
2022/12/31 12:29:10;;;;;;;19.40;6.60;;;;;;;19.92;nan;102102.28;4883988;29;20457;-86